Langebaanweg, South Africa
Current Conditions -  °F | °C
As of 11:00 PM on Tuesday 21 Oct 2014 (Local Time) from FACT Reporting Station
Light Fog Light Fog  
Wind Chill: 57°   Ceiling: Unl
Heat Index: 57°   Visibility: 6mi
Dew Point: 55°   Wind: 3mph
Humidity: 94%   Direction: 320°NW
Pressure: 30"   Gusts: NA
Location:  32.97°S, 18.15°E
Report Text: FACT 212100Z 32003KT 9999 5000NW BCFG NSC 14/13 Q1016 NOSIG
Loading
Personal Weather Stations






























Interactive Weather Map
Tropical Storm Tracking
New forecast layout! Learn more

10-Day Weather Forecast

Advertisements
Track Severe Weather on mobile